Terminal Aerodrome Forecast
Issued by NWS Pueblo, CO

Home | Current Version | Previous Version | Text Only | Print | Product List | Glossary On
Versions: 1 2 3 4 5 6 7 8 9 10 11 12 13 14
000
FTUS45 KPUB 240520
TAFCOS
TAF
KCOS 240520Z 2406/2506 VRB06KT P6SM FEW120 SCT200
     FM241800 13009KT P6SM FEW120 FEW180
     FM250200 VRB06KT P6SM FEW120 FEW180=

USA.gov is the U.S. government's official web portal to all federal, state and local government web resources and services.